createdAt,value
2023-05-10T00:01:03.000Z,0
2023-05-10T00:02:19.000Z,0
2023-05-10T00:03:35.000Z,0
2023-05-10T00:04:52.000Z,0
2023-05-10T00:06:08.000Z,0
2023-05-10T00:07:24.000Z,0
2023-05-10T00:08:40.000Z,0
2023-05-10T00:09:55.000Z,0
2023-05-10T00:11:12.000Z,0
2023-05-10T00:12:28.000Z,0
2023-05-10T00:13:44.000Z,0
2023-05-10T00:15:00.000Z,0
2023-05-10T00:16:16.000Z,0
2023-05-10T00:17:32.000Z,0
2023-05-10T00:18:48.000Z,0
2023-05-10T00:20:04.000Z,0
2023-05-10T00:21:20.000Z,0
2023-05-10T00:22:36.000Z,0
2023-05-10T00:23:53.000Z,0
2023-05-10T00:25:09.000Z,0
2023-05-10T00:26:25.000Z,0
2023-05-10T00:27:41.531Z,0
2023-05-10T00:28:57.000Z,0
2023-05-10T00:30:13.000Z,0
2023-05-10T00:31:30.000Z,0
2023-05-10T00:32:46.000Z,0
2023-05-10T00:34:01.000Z,0
2023-05-10T00:35:17.000Z,0
2023-05-10T00:36:33.000Z,0
2023-05-10T00:37:50.000Z,0
2023-05-10T00:39:06.000Z,0
2023-05-10T00:40:22.000Z,0
2023-05-10T00:41:38.000Z,0
2023-05-10T00:42:54.000Z,0
2023-05-10T00:44:11.000Z,0
2023-05-10T00:45:27.000Z,0
2023-05-10T00:46:43.000Z,0
2023-05-10T00:47:59.000Z,0
2023-05-10T00:49:15.000Z,0
2023-05-10T00:50:31.000Z,0
2023-05-10T00:51:47.000Z,0
2023-05-10T00:53:03.000Z,0
2023-05-10T00:54:19.000Z,0
2023-05-10T00:55:35.000Z,0
2023-05-10T00:56:52.000Z,0
2023-05-10T00:58:08.000Z,0
2023-05-10T00:59:24.000Z,0
2023-05-10T01:00:40.000Z,0
2023-05-10T01:01:56.000Z,0
2023-05-10T01:03:13.000Z,0
2023-05-10T01:04:29.000Z,0
2023-05-10T01:05:45.422Z,0
2023-05-10T01:07:00.000Z,0
2023-05-10T01:08:16.000Z,0
2023-05-10T01:09:33.000Z,0
2023-05-10T01:10:49.000Z,0
2023-05-10T01:12:05.000Z,0
2023-05-10T01:13:21.000Z,0
2023-05-10T01:14:37.000Z,0
2023-05-10T01:15:54.000Z,0
2023-05-10T01:17:10.000Z,0
2023-05-10T01:18:26.000Z,0
2023-05-10T01:19:42.000Z,0
2023-05-10T01:20:58.000Z,0
2023-05-10T01:22:15.000Z,0
2023-05-10T01:23:30.000Z,0
2023-05-10T01:24:46.000Z,0
2023-05-10T01:26:02.000Z,0
2023-05-10T01:27:18.000Z,0
2023-05-10T01:28:35.000Z,0
2023-05-10T01:29:51.000Z,0
2023-05-10T01:31:07.000Z,0
2023-05-10T01:32:23.000Z,0
2023-05-10T01:33:39.000Z,0
2023-05-10T01:34:56.000Z,0
2023-05-10T01:36:12.000Z,0
2023-05-10T01:37:28.000Z,0
2023-05-10T01:38:44.000Z,0
2023-05-10T01:39:59.000Z,0
2023-05-10T01:41:15.000Z,0
2023-05-10T01:42:32.000Z,0
2023-05-10T01:43:48.000Z,0
2023-05-10T01:45:04.000Z,0
2023-05-10T01:46:20.000Z,0
2023-05-10T01:47:36.000Z,0
2023-05-10T01:48:53.000Z,0
2023-05-10T01:50:09.000Z,0
2023-05-10T01:51:25.000Z,0
2023-05-10T01:52:41.000Z,0
2023-05-10T01:53:57.000Z,0
2023-05-10T01:55:14.000Z,0
2023-05-10T01:56:29.000Z,0
2023-05-10T01:57:45.000Z,0
2023-05-10T01:59:01.000Z,0
2023-05-10T02:00:17.000Z,0
2023-05-10T02:01:34.000Z,0
2023-05-10T02:02:50.000Z,0
2023-05-10T02:04:06.000Z,0
2023-05-10T02:05:22.000Z,0
2023-05-10T02:06:38.000Z,0
2023-05-10T02:07:55.000Z,0
2023-05-10T02:09:11.000Z,0
2023-05-10T02:10:27.000Z,0
2023-05-10T02:11:43.000Z,0
2023-05-10T02:12:58.000Z,0
2023-05-10T02:14:15.000Z,0
2023-05-10T02:15:31.221Z,0
2023-05-10T02:16:47.000Z,0
2023-05-10T02:18:03.000Z,0
2023-05-10T02:19:19.000Z,0
2023-05-10T02:20:36.000Z,0
2023-05-10T02:21:52.000Z,0
2023-05-10T02:23:08.000Z,0
2023-05-10T02:24:24.000Z,0
2023-05-10T02:25:40.000Z,0
2023-05-10T02:26:57.000Z,0
2023-05-10T02:28:13.000Z,0
2023-05-10T02:29:28.000Z,0
2023-05-10T02:30:44.000Z,0
2023-05-10T02:32:00.000Z,0
2023-05-10T02:33:17.000Z,0
2023-05-10T02:34:33.185Z,0
2023-05-10T02:35:49.375Z,0
2023-05-10T02:37:05.000Z,0
2023-05-10T02:38:21.000Z,0
2023-05-10T02:39:38.000Z,0
2023-05-10T02:40:54.000Z,0
2023-05-10T02:42:10.000Z,0
2023-05-10T02:43:26.000Z,0
2023-05-10T02:44:42.000Z,0
2023-05-10T02:45:58.000Z,0
2023-05-10T02:47:14.000Z,0
2023-05-10T02:48:30.000Z,0
2023-05-10T02:49:46.000Z,0
2023-05-10T02:51:02.000Z,0
2023-05-10T02:52:18.000Z,0
2023-05-10T02:53:35.000Z,0
2023-05-10T02:54:51.000Z,0
2023-05-10T02:56:07.000Z,0
2023-05-10T02:57:23.000Z,0
2023-05-10T02:58:39.910Z,0
2023-05-10T02:59:56.000Z,0
2023-05-10T03:01:12.000Z,0
2023-05-10T03:02:27.000Z,0
2023-05-10T03:03:43.000Z,0
2023-05-10T03:04:59.000Z,0
2023-05-10T03:06:16.000Z,0
2023-05-10T03:07:32.000Z,0
2023-05-10T03:08:48.000Z,0
2023-05-10T03:10:04.000Z,0
2023-05-10T03:11:20.000Z,0
2023-05-10T03:12:37.057Z,0
2023-05-10T03:13:53.000Z,0
2023-05-10T03:15:09.000Z,0
2023-05-10T03:16:25.000Z,0
2023-05-10T03:17:41.000Z,0
2023-05-10T03:18:57.000Z,0
2023-05-10T03:20:13.000Z,0
2023-05-10T03:21:29.000Z,4
2023-05-10T03:22:45.000Z,4
2023-05-10T03:24:01.000Z,4
2023-05-10T03:25:18.041Z,4
2023-05-10T03:26:34.000Z,4
2023-05-10T03:27:50.000Z,4
2023-05-10T03:29:06.000Z,8
2023-05-10T03:30:22.000Z,8
2023-05-10T03:31:39.000Z,8
2023-05-10T03:32:55.000Z,8
2023-05-10T03:34:11.000Z,12
2023-05-10T03:35:26.000Z,12
2023-05-10T03:36:42.000Z,16
2023-05-10T03:37:58.995Z,16
2023-05-10T03:39:15.000Z,16
2023-05-10T03:40:31.000Z,20
2023-05-10T03:41:47.000Z,20
2023-05-10T03:43:03.000Z,24
2023-05-10T03:44:20.000Z,24
2023-05-10T03:45:36.000Z,28
2023-05-10T03:46:52.375Z,36
2023-05-10T03:48:08.000Z,36
2023-05-10T03:49:24.000Z,40
2023-05-10T03:50:41.000Z,44
2023-05-10T03:51:56.000Z,48
2023-05-10T03:53:12.000Z,52
2023-05-10T03:54:28.000Z,60
2023-05-10T03:55:44.000Z,64
2023-05-10T03:57:01.000Z,72
2023-05-10T03:58:17.000Z,76
2023-05-10T03:59:33.000Z,84
2023-05-10T04:00:49.000Z,88
2023-05-10T04:02:05.000Z,88
2023-05-10T04:03:21.000Z,96
2023-05-10T04:04:38.000Z,100
2023-05-10T04:05:54.000Z,112
2023-05-10T04:07:10.000Z,124
2023-05-10T04:08:25.000Z,132
2023-05-10T04:09:41.000Z,144
2023-05-10T04:10:58.000Z,156
2023-05-10T04:12:14.000Z,168
2023-05-10T04:13:30.000Z,180
2023-05-10T04:14:46.000Z,196
2023-05-10T04:16:02.000Z,216
2023-05-10T04:17:19.000Z,228
2023-05-10T04:18:35.000Z,228
2023-05-10T04:19:51.000Z,232
2023-05-10T04:21:07.000Z,240
2023-05-10T04:22:23.000Z,248
2023-05-10T04:23:40.000Z,256
2023-05-10T04:24:55.000Z,264
2023-05-10T04:26:11.000Z,264
2023-05-10T04:27:27.000Z,268
2023-05-10T04:28:43.000Z,268
2023-05-10T04:30:00.000Z,272
2023-05-10T04:31:16.000Z,268
2023-05-10T04:32:31.000Z,320
2023-05-10T04:33:47.000Z,372
2023-05-10T04:35:03.000Z,356
2023-05-10T04:36:20.000Z,328
2023-05-10T04:37:36.000Z,324
2023-05-10T04:38:52.000Z,348
2023-05-10T04:40:08.000Z,388
2023-05-10T04:41:24.000Z,424
2023-05-10T04:42:41.000Z,492
2023-05-10T04:43:57.000Z,516
2023-05-10T04:45:13.000Z,528
2023-05-10T04:46:29.000Z,540
2023-05-10T04:47:45.000Z,572
2023-05-10T04:49:01.041Z,656
2023-05-10T04:50:17.000Z,712
2023-05-10T04:51:33.000Z,736
2023-05-10T04:52:49.000Z,780
2023-05-10T04:54:05.000Z,752
2023-05-10T04:55:22.000Z,760
2023-05-10T04:56:38.000Z,788
2023-05-10T04:57:54.000Z,804
2023-05-10T04:59:10.000Z,828
2023-05-10T05:00:26.000Z,840
2023-05-10T05:01:43.000Z,848
2023-05-10T05:02:59.000Z,828
2023-05-10T05:04:15.000Z,892
2023-05-10T05:05:30.000Z,920
2023-05-10T05:06:46.000Z,960
2023-05-10T05:08:03.000Z,1024
2023-05-10T05:09:19.000Z,1020
2023-05-10T05:10:35.000Z,1116
2023-05-10T05:11:51.000Z,1212
2023-05-10T05:13:07.000Z,1260
2023-05-10T05:14:24.000Z,1272
2023-05-10T05:15:40.000Z,1336
2023-05-10T05:16:56.000Z,1468
2023-05-10T05:18:12.000Z,1692
2023-05-10T05:19:28.734Z,1656
2023-05-10T05:20:45.000Z,1792
2023-05-10T05:22:00.000Z,2092
2023-05-10T05:23:16.000Z,2068
2023-05-10T05:24:32.000Z,1836
2023-05-10T05:25:48.000Z,1708
2023-05-10T05:27:04.000Z,1724
2023-05-10T05:28:21.000Z,1788
2023-05-10T05:29:37.000Z,1408
2023-05-10T05:30:53.000Z,1280
2023-05-10T05:32:09.704Z,1220
2023-05-10T05:33:25.000Z,1168
2023-05-10T05:34:42.000Z,1116
2023-05-10T05:35:58.000Z,1200
2023-05-10T05:37:14.000Z,1196
2023-05-10T05:38:29.000Z,1188
2023-05-10T05:39:45.000Z,1120
2023-05-10T05:41:02.000Z,1180
2023-05-10T05:42:18.000Z,1384
2023-05-10T05:43:34.000Z,1580
2023-05-10T05:44:50.000Z,1560
2023-05-10T05:46:06.000Z,1536
2023-05-10T05:47:23.000Z,1548
2023-05-10T05:48:39.000Z,1528
2023-05-10T05:49:55.000Z,1468
2023-05-10T05:51:11.643Z,1632
2023-05-10T05:52:27.000Z,1388
2023-05-10T05:53:44.000Z,1296
2023-05-10T05:54:59.000Z,1460
2023-05-10T05:56:15.000Z,1700
2023-05-10T05:57:31.000Z,2064
2023-05-10T05:58:47.839Z,2448
2023-05-10T06:00:04.000Z,2340
2023-05-10T06:01:20.000Z,2180
2023-05-10T06:02:36.000Z,2028
2023-05-10T06:03:52.000Z,1920
2023-05-10T06:05:08.000Z,1900
2023-05-10T06:06:25.000Z,1860
2023-05-10T06:07:41.000Z,1680
2023-05-10T06:08:57.000Z,1600
2023-05-10T06:10:13.000Z,1796
2023-05-10T06:11:28.000Z,1828
2023-05-10T06:12:45.000Z,2148
2023-05-10T06:14:01.000Z,2352
2023-05-10T06:15:17.000Z,2324
2023-05-10T06:16:33.000Z,2140
2023-05-10T06:17:49.000Z,1796
2023-05-10T06:19:06.000Z,1988
2023-05-10T06:20:22.000Z,2272
2023-05-10T06:21:38.000Z,2612
2023-05-10T06:22:54.574Z,2852
2023-05-10T06:24:10.754Z,2960
2023-05-10T06:25:27.000Z,2620
2023-05-10T06:26:43.000Z,2168
2023-05-10T06:27:58.000Z,2096
2023-05-10T06:29:14.552Z,1948
2023-05-10T06:30:30.000Z,1680
2023-05-10T06:31:47.000Z,1452
2023-05-10T06:33:03.000Z,1444
2023-05-10T06:34:19.000Z,1672
2023-05-10T06:35:35.000Z,2224
2023-05-10T06:36:51.000Z,2528
2023-05-10T06:38:08.000Z,2456
2023-05-10T06:39:24.000Z,2240
2023-05-10T06:40:40.000Z,1992
2023-05-10T06:41:56.000Z,1536
2023-05-10T06:43:12.000Z,1064
2023-05-10T06:44:28.000Z,800
2023-05-10T06:45:44.000Z,796
2023-05-10T06:47:00.000Z,800
2023-05-10T06:48:16.519Z,764
2023-05-10T06:49:32.000Z,912
2023-05-10T06:50:48.000Z,1108
2023-05-10T06:52:05.000Z,1140
2023-05-10T06:53:21.000Z,1488
2023-05-10T06:54:37.000Z,1608
2023-05-10T06:55:53.000Z,1564
2023-05-10T06:57:09.000Z,1528
2023-05-10T06:58:26.000Z,1704
2023-05-10T06:59:42.000Z,1872
2023-05-10T07:00:57.000Z,2016
2023-05-10T07:02:13.000Z,2056
2023-05-10T07:03:29.000Z,2332
2023-05-10T07:04:46.000Z,2624
2023-05-10T07:06:02.000Z,2536
2023-05-10T07:07:18.000Z,2296
2023-05-10T07:08:34.000Z,2368
2023-05-10T07:09:50.000Z,1888
2023-05-10T07:11:07.000Z,1564
2023-05-10T07:12:23.000Z,1800
2023-05-10T07:13:39.000Z,2068
2023-05-10T07:14:55.000Z,2892
2023-05-10T07:16:11.000Z,3428
2023-05-10T07:17:27.000Z,4956
2023-05-10T07:18:43.000Z,5820
2023-05-10T07:19:59.000Z,5468
2023-05-10T07:21:15.000Z,7896
2023-05-10T07:22:31.826Z,10008
2023-05-10T07:23:48.019Z,8420
2023-05-10T07:25:04.000Z,6980
2023-05-10T07:26:20.406Z,6492
2023-05-10T07:27:36.000Z,5484
2023-05-10T07:28:52.000Z,5184
2023-05-10T07:30:09.000Z,4480
2023-05-10T07:31:25.000Z,3816
2023-05-10T07:32:41.000Z,4020
2023-05-10T07:33:56.000Z,3888
2023-05-10T07:35:12.000Z,3540
2023-05-10T07:36:29.000Z,3072
2023-05-10T07:37:45.000Z,3788
2023-05-10T07:39:01.000Z,3784
2023-05-10T07:40:17.000Z,4980
2023-05-10T07:41:33.000Z,6360
2023-05-10T07:42:50.000Z,9008
2023-05-10T07:44:06.000Z,10460
2023-05-10T07:45:22.352Z,15144
2023-05-10T07:46:38.000Z,18880
2023-05-10T07:47:54.000Z,26784
2023-05-10T07:49:11.000Z,43456
2023-05-10T07:50:26.000Z,27168
2023-05-10T07:51:42.000Z,83840
2023-05-10T07:52:58.000Z,66112
2023-05-10T07:54:14.000Z,32576
2023-05-10T07:55:31.000Z,26336
2023-05-10T07:56:47.000Z,25152
2023-05-10T07:58:03.000Z,40384
2023-05-10T07:59:19.000Z,39968
2023-05-10T08:00:35.000Z,12740
2023-05-10T08:01:51.000Z,10384
2023-05-10T08:03:08.000Z,6896
2023-05-10T08:04:24.000Z,6820
2023-05-10T08:05:40.000Z,5172
2023-05-10T08:06:55.000Z,6032
2023-05-10T08:08:12.000Z,6752
2023-05-10T08:09:28.000Z,7432
2023-05-10T08:10:44.000Z,9180
2023-05-10T08:12:00.000Z,7512
2023-05-10T08:13:16.000Z,5488
2023-05-10T08:14:32.000Z,6572
2023-05-10T08:15:49.000Z,16144
2023-05-10T08:17:05.000Z,10856
2023-05-10T08:18:21.000Z,53760
2023-05-10T08:19:37.000Z,79872
2023-05-10T08:20:53.000Z,21760
2023-05-10T08:22:10.000Z,28384
2023-05-10T08:23:25.000Z,87808
2023-05-10T08:24:41.000Z,24960
2023-05-10T08:25:57.000Z,18144
2023-05-10T08:27:13.000Z,15180
2023-05-10T08:28:30.000Z,37696
2023-05-10T08:29:46.000Z,16876
2023-05-10T08:31:02.000Z,13268
2023-05-10T08:32:18.000Z,13624
2023-05-10T08:33:34.000Z,13880
2023-05-10T08:34:51.000Z,11364
2023-05-10T08:36:07.000Z,10028
2023-05-10T08:37:23.000Z,9784
2023-05-10T08:38:39.000Z,8836
2023-05-10T08:39:54.000Z,9232
2023-05-10T08:41:11.000Z,8760
2023-05-10T08:42:27.000Z,9292
2023-05-10T08:43:43.000Z,9552
2023-05-10T08:44:59.000Z,8720
2023-05-10T08:46:15.000Z,8508
2023-05-10T08:47:31.000Z,7872
2023-05-10T08:48:47.000Z,9524
2023-05-10T08:50:03.000Z,10044
2023-05-10T08:51:19.000Z,10136
2023-05-10T08:52:35.000Z,10300
2023-05-10T08:53:52.000Z,10204
2023-05-10T08:55:08.000Z,10140
2023-05-10T08:56:24.000Z,9764
2023-05-10T08:57:40.000Z,10716
2023-05-10T08:58:56.000Z,10900
2023-05-10T09:00:13.000Z,11184
2023-05-10T09:01:29.000Z,12788
2023-05-10T09:02:45.000Z,13432
2023-05-10T09:04:00.000Z,14252
2023-05-10T09:05:16.000Z,15252
2023-05-10T09:06:33.000Z,13988
2023-05-10T09:07:49.156Z,12076
2023-05-10T09:09:05.000Z,10512
2023-05-10T09:10:21.000Z,9940
2023-05-10T09:11:37.000Z,14060
2023-05-10T09:12:54.000Z,17600
2023-05-10T09:14:10.000Z,20032
2023-05-10T09:15:26.000Z,16248
2023-05-10T09:16:42.000Z,12060
2023-05-10T09:17:58.000Z,11492
2023-05-10T09:19:14.000Z,13280
2023-05-10T09:20:30.100Z,13624
2023-05-10T09:21:46.000Z,12944
2023-05-10T09:23:02.000Z,18016
2023-05-10T09:24:18.000Z,18464
2023-05-10T09:25:34.000Z,20640
2023-05-10T09:26:51.000Z,17460
2023-05-10T09:28:07.000Z,19808
2023-05-10T09:29:23.000Z,21504
2023-05-10T09:30:39.000Z,17180
2023-05-10T09:31:55.000Z,14804
2023-05-10T09:33:12.000Z,15368
2023-05-10T09:34:28.000Z,13088
2023-05-10T09:35:44.422Z,13668
2023-05-10T09:36:59.000Z,14052
2023-05-10T09:38:15.000Z,12368
2023-05-10T09:39:32.000Z,11604
2023-05-10T09:40:48.000Z,9852
2023-05-10T09:42:04.000Z,9368
2023-05-10T09:43:20.000Z,8360
2023-05-10T09:44:36.000Z,6032
2023-05-10T09:45:53.000Z,4240
2023-05-10T09:47:09.000Z,3184
2023-05-10T09:48:25.000Z,2660
2023-05-10T09:49:41.000Z,2264
2023-05-10T09:50:57.000Z,2276
2023-05-10T09:52:14.000Z,2680
2023-05-10T09:53:29.000Z,3536
2023-05-10T09:54:45.000Z,4644
2023-05-10T09:56:01.000Z,5876
2023-05-10T09:57:17.000Z,7020
2023-05-10T09:58:34.000Z,10296
2023-05-10T09:59:50.000Z,14032
2023-05-10T10:01:06.000Z,14228
2023-05-10T10:02:22.000Z,14480
2023-05-10T10:03:38.712Z,15952
2023-05-10T10:04:54.000Z,14368
2023-05-10T10:06:11.000Z,14516
2023-05-10T10:07:27.000Z,13796
2023-05-10T10:08:43.000Z,13244
2023-05-10T10:09:58.000Z,13432
2023-05-10T10:11:14.000Z,14700
2023-05-10T10:12:31.000Z,14328
2023-05-10T10:13:47.000Z,14772
2023-05-10T10:15:03.000Z,14320
2023-05-10T10:16:19.000Z,14400
2023-05-10T10:17:35.000Z,14024
2023-05-10T10:18:52.000Z,13452
2023-05-10T10:20:08.000Z,13208
2023-05-10T10:21:24.000Z,12704
2023-05-10T10:22:40.000Z,12388
2023-05-10T10:23:56.000Z,12116
2023-05-10T10:25:13.000Z,12320
2023-05-10T10:26:28.000Z,12352
2023-05-10T10:27:44.000Z,12980
2023-05-10T10:29:00.000Z,12712
2023-05-10T10:30:16.811Z,11896
2023-05-10T10:31:33.000Z,11932
2023-05-10T10:32:49.000Z,11748
2023-05-10T10:34:05.394Z,13112
2023-05-10T10:35:21.000Z,14064
2023-05-10T10:36:37.769Z,14552
2023-05-10T10:37:54.000Z,15156
2023-05-10T10:39:10.000Z,16344
2023-05-10T10:40:26.000Z,15128
2023-05-10T10:41:42.000Z,15420
2023-05-10T10:42:57.000Z,15568
2023-05-10T10:44:13.942Z,14880
2023-05-10T10:45:30.000Z,14480
2023-05-10T10:46:46.000Z,14092
2023-05-10T10:48:02.000Z,14616
2023-05-10T10:49:18.712Z,14732
2023-05-10T10:50:34.925Z,13092
2023-05-10T10:51:51.000Z,12448
2023-05-10T10:53:07.000Z,12744
2023-05-10T10:54:23.000Z,12832
2023-05-10T10:55:39.000Z,13160
2023-05-10T10:56:55.000Z,12520
2023-05-10T10:58:12.000Z,11624
2023-05-10T10:59:27.000Z,12996
2023-05-10T11:00:43.000Z,12896
2023-05-10T11:01:59.000Z,12464
2023-05-10T11:03:15.000Z,11940
2023-05-10T11:04:32.000Z,10956
2023-05-10T11:05:48.000Z,11500
2023-05-10T11:07:04.000Z,12164
2023-05-10T11:08:20.000Z,12312
2023-05-10T11:09:36.000Z,12128
2023-05-10T11:10:53.000Z,10700
2023-05-10T11:12:09.000Z,10148
2023-05-10T11:13:25.000Z,9908
2023-05-10T11:14:41.000Z,9888
2023-05-10T11:15:56.000Z,9572
2023-05-10T11:17:13.010Z,10964
2023-05-10T11:18:29.000Z,12028
2023-05-10T11:19:45.000Z,11632
2023-05-10T11:21:01.000Z,11988
2023-05-10T11:22:17.000Z,11408
2023-05-10T11:23:34.000Z,10824
2023-05-10T11:24:50.000Z,9188
2023-05-10T11:26:06.000Z,7084
2023-05-10T11:27:22.559Z,4872
2023-05-10T11:28:38.000Z,3004
2023-05-10T11:29:55.000Z,2004
2023-05-10T11:31:11.000Z,1636
2023-05-10T11:32:26.000Z,1612
2023-05-10T11:33:42.000Z,1796
2023-05-10T11:34:58.000Z,1900
2023-05-10T11:36:15.000Z,1804
2023-05-10T11:37:31.116Z,1740
2023-05-10T11:38:47.000Z,1672
2023-05-10T11:40:03.000Z,1588
2023-05-10T11:41:19.000Z,1640
2023-05-10T11:42:35.000Z,1936
2023-05-10T11:43:52.000Z,2468
2023-05-10T11:45:08.000Z,2968
2023-05-10T11:46:24.000Z,3728
2023-05-10T11:47:40.000Z,4508
2023-05-10T11:48:55.000Z,5264
2023-05-10T11:50:12.000Z,6284
2023-05-10T11:51:28.000Z,7012
2023-05-10T11:52:44.000Z,7620
2023-05-10T11:54:00.000Z,8628
2023-05-10T11:55:16.000Z,9636
2023-05-10T11:56:33.000Z,10764
2023-05-10T11:57:49.000Z,11024
2023-05-10T11:59:05.000Z,11004
2023-05-10T12:00:21.000Z,10752
2023-05-10T12:01:37.000Z,10952
2023-05-10T12:02:54.000Z,10184
2023-05-10T12:04:10.000Z,10364
2023-05-10T12:05:25.409Z,10068
2023-05-10T12:06:41.000Z,9420
2023-05-10T12:07:57.000Z,9688
2023-05-10T12:09:14.000Z,10072
2023-05-10T12:10:30.000Z,9592
2023-05-10T12:11:46.000Z,8740
2023-05-10T12:13:02.000Z,8264
2023-05-10T12:14:18.000Z,8028
2023-05-10T12:15:35.000Z,7544
2023-05-10T12:16:51.000Z,7964
2023-05-10T12:18:07.000Z,8116
2023-05-10T12:19:23.000Z,7404
2023-05-10T12:20:39.723Z,6416
2023-05-10T12:21:55.000Z,5652
2023-05-10T12:23:11.000Z,4888
2023-05-10T12:24:27.000Z,4512
2023-05-10T12:25:43.000Z,4104
2023-05-10T12:26:59.000Z,3804
2023-05-10T12:28:15.000Z,3468
2023-05-10T12:29:32.000Z,3328
2023-05-10T12:30:48.000Z,3560
2023-05-10T12:32:04.000Z,3908
2023-05-10T12:33:20.000Z,4496
2023-05-10T12:34:36.000Z,5420
2023-05-10T12:35:53.000Z,6100
2023-05-10T12:37:09.000Z,6608
2023-05-10T12:38:24.000Z,7096
2023-05-10T12:39:40.000Z,7416
2023-05-10T12:40:56.000Z,7260
2023-05-10T12:42:13.000Z,7448
2023-05-10T12:43:29.241Z,7620
2023-05-10T12:44:45.000Z,7664
2023-05-10T12:46:01.000Z,7388
2023-05-10T12:47:17.000Z,6856
2023-05-10T12:48:34.000Z,6812
2023-05-10T12:49:50.000Z,7048
2023-05-10T12:51:06.000Z,7328
2023-05-10T12:52:22.000Z,8212
2023-05-10T12:53:38.000Z,8232
2023-05-10T12:54:54.000Z,8644
2023-05-10T12:56:10.000Z,9144
2023-05-10T12:57:26.000Z,8672
2023-05-10T12:58:42.000Z,8904
2023-05-10T12:59:58.000Z,8276
2023-05-10T13:01:15.000Z,8212
2023-05-10T13:02:30.000Z,8160
2023-05-10T13:03:46.000Z,7996
2023-05-10T13:05:02.000Z,8032
2023-05-10T13:06:18.000Z,8468
2023-05-10T13:07:35.000Z,7728
2023-05-10T13:08:51.000Z,7364
2023-05-10T13:10:07.000Z,7028
2023-05-10T13:11:23.000Z,7028
2023-05-10T13:12:39.000Z,7000
2023-05-10T13:13:56.000Z,6912
2023-05-10T13:15:12.000Z,6728
2023-05-10T13:16:28.000Z,6684
2023-05-10T13:17:44.000Z,6676
2023-05-10T13:18:59.000Z,6492
2023-05-10T13:20:15.000Z,6048
2023-05-10T13:21:32.091Z,5660
2023-05-10T13:22:48.000Z,5528
2023-05-10T13:24:04.000Z,5540
2023-05-10T13:25:20.000Z,5652
2023-05-10T13:26:36.000Z,5308
2023-05-10T13:27:53.000Z,4768
2023-05-10T13:29:09.000Z,4692
2023-05-10T13:30:25.000Z,4476
2023-05-10T13:31:41.000Z,3904
2023-05-10T13:32:57.000Z,3244
2023-05-10T13:34:14.000Z,2836
2023-05-10T13:35:29.000Z,2364
2023-05-10T13:36:45.000Z,1956
2023-05-10T13:38:01.000Z,1724
2023-05-10T13:39:17.000Z,1576
2023-05-10T13:40:34.000Z,1524
2023-05-10T13:41:50.000Z,1520
2023-05-10T13:43:06.000Z,1592
2023-05-10T13:44:22.000Z,1712
2023-05-10T13:45:38.000Z,1844
2023-05-10T13:46:54.967Z,1960
2023-05-10T13:48:11.000Z,2152
2023-05-10T13:49:27.000Z,2356
2023-05-10T13:51:59.000Z,2944
2023-05-10T13:53:15.000Z,3324
2023-05-10T13:54:31.000Z,3688
2023-05-10T13:55:47.000Z,3976
2023-05-10T13:57:03.000Z,4220
2023-05-10T13:58:19.731Z,4592
2023-05-10T13:59:36.000Z,4940
2023-05-10T14:00:52.000Z,5196
2023-05-10T14:02:08.000Z,5460
2023-05-10T14:03:24.000Z,5692
2023-05-10T14:04:40.000Z,5852
2023-05-10T14:05:56.000Z,5900
2023-05-10T14:07:13.000Z,5792
2023-05-10T14:08:29.000Z,5568
2023-05-10T14:09:44.000Z,5360
2023-05-10T14:11:00.000Z,5140
2023-05-10T14:12:16.858Z,4544
2023-05-10T14:13:33.000Z,3976
2023-05-10T14:14:49.000Z,3524
2023-05-10T14:16:05.000Z,3208
2023-05-10T14:17:21.000Z,3116
2023-05-10T14:18:37.000Z,3144
2023-05-10T14:19:54.000Z,3088
2023-05-10T14:21:10.000Z,3052
2023-05-10T14:22:26.000Z,3352
2023-05-10T14:23:42.000Z,3884
2023-05-10T14:24:58.000Z,4216
2023-05-10T14:26:14.000Z,4412
2023-05-10T14:27:30.000Z,4556
2023-05-10T14:28:46.000Z,4752
2023-05-10T14:30:02.000Z,4948
2023-05-10T14:31:18.000Z,5172
2023-05-10T14:32:35.000Z,5412
2023-05-10T14:33:51.000Z,5924
2023-05-10T14:35:07.000Z,5972
2023-05-10T14:36:23.000Z,5932
2023-05-10T14:37:39.000Z,5692
2023-05-10T14:38:56.000Z,5920
2023-05-10T14:40:12.000Z,6240
2023-05-10T14:41:28.000Z,6524
2023-05-10T14:42:43.000Z,6024
2023-05-10T14:43:59.000Z,6228
2023-05-10T14:45:16.000Z,6172
2023-05-10T14:46:32.000Z,5844
2023-05-10T14:47:48.000Z,5852
2023-05-10T14:49:04.000Z,6424
2023-05-10T14:50:20.689Z,5912
2023-05-10T14:51:36.000Z,5552
2023-05-10T14:52:53.000Z,5788
2023-05-10T14:54:09.000Z,5356
2023-05-10T14:55:25.000Z,5356
2023-05-10T14:56:41.000Z,5016
2023-05-10T14:57:57.000Z,4748
2023-05-10T14:59:13.000Z,4464
2023-05-10T15:00:29.000Z,4304
2023-05-10T15:01:45.000Z,4188
2023-05-10T15:03:01.000Z,4136
2023-05-10T15:04:17.000Z,4160
2023-05-10T15:05:34.000Z,4228
2023-05-10T15:06:50.000Z,4316
2023-05-10T15:08:06.000Z,4640
2023-05-10T15:09:22.000Z,5424
2023-05-10T15:10:38.000Z,5608
2023-05-10T15:11:55.000Z,5340
2023-05-10T15:13:11.000Z,5288
2023-05-10T15:14:27.000Z,6332
2023-05-10T15:15:42.604Z,6508
2023-05-10T15:16:58.000Z,6312
2023-05-10T15:18:15.000Z,6148
2023-05-10T15:19:31.000Z,4980
2023-05-10T15:20:47.000Z,4812
2023-05-10T15:22:03.000Z,4780
2023-05-10T15:23:19.000Z,4720
2023-05-10T15:24:36.000Z,4684
2023-05-10T15:25:52.000Z,4700
2023-05-10T15:27:08.000Z,4692
2023-05-10T15:28:24.000Z,4676
2023-05-10T15:29:40.000Z,4692
2023-05-10T15:30:57.000Z,4564
2023-05-10T15:32:12.000Z,4516
2023-05-10T15:33:28.000Z,4368
2023-05-10T15:34:44.000Z,4308
2023-05-10T15:36:00.000Z,4268
2023-05-10T15:37:17.000Z,4248
2023-05-10T15:38:33.000Z,4244
2023-05-10T15:39:49.000Z,4196
2023-05-10T15:41:05.000Z,4100
2023-05-10T15:42:21.000Z,3972
2023-05-10T15:43:37.000Z,3836
2023-05-10T15:44:54.000Z,3812
2023-05-10T15:46:10.000Z,3816
2023-05-10T15:47:26.448Z,3816
2023-05-10T15:48:41.000Z,3880
2023-05-10T15:49:57.000Z,3960
2023-05-10T15:51:14.000Z,4072
2023-05-10T15:52:30.000Z,4084
2023-05-10T15:53:46.000Z,4120
2023-05-10T15:55:02.625Z,4132
2023-05-10T15:56:18.000Z,4108
2023-05-10T15:57:35.000Z,4096
2023-05-10T15:58:51.000Z,4880
2023-05-10T16:00:07.000Z,4624
2023-05-10T16:01:23.000Z,4256
2023-05-10T16:02:39.871Z,4024
2023-05-10T16:03:56.000Z,3748
2023-05-10T16:05:11.000Z,4528
2023-05-10T16:06:27.000Z,3540
2023-05-10T16:07:43.000Z,3776
2023-05-10T16:08:59.000Z,4128
2023-05-10T16:10:16.000Z,5608
2023-05-10T16:11:32.000Z,5816
2023-05-10T16:12:48.000Z,5880
2023-05-10T16:14:04.000Z,5852
2023-05-10T16:15:20.000Z,5976
2023-05-10T16:16:37.000Z,6196
2023-05-10T16:17:53.000Z,6352
2023-05-10T16:19:09.389Z,6292
2023-05-10T16:20:25.000Z,6412
2023-05-10T16:21:40.000Z,4908
2023-05-10T16:22:57.000Z,4748
2023-05-10T16:24:13.000Z,4756
2023-05-10T16:25:29.000Z,5924
2023-05-10T16:26:45.000Z,6144
2023-05-10T16:28:01.000Z,5784
2023-05-10T16:29:17.000Z,5936
2023-05-10T16:30:34.000Z,6164
2023-05-10T16:31:50.000Z,6884
2023-05-10T16:33:06.000Z,6556
2023-05-10T16:34:22.000Z,6252
2023-05-10T16:35:38.000Z,6040
2023-05-10T16:36:55.000Z,4848
2023-05-10T16:38:10.000Z,4536
2023-05-10T16:39:26.000Z,6576
2023-05-10T16:40:42.000Z,6388
2023-05-10T16:41:58.000Z,3820
2023-05-10T16:43:15.000Z,3600
2023-05-10T16:44:31.000Z,3480
2023-05-10T16:45:47.000Z,3444
2023-05-10T16:47:03.000Z,3348
2023-05-10T16:48:19.000Z,3264
2023-05-10T16:49:36.000Z,3272
2023-05-10T16:50:52.000Z,3372
2023-05-10T16:52:08.000Z,3404
2023-05-10T16:53:24.000Z,3768
2023-05-10T16:54:39.000Z,3984
2023-05-10T16:55:56.000Z,3984
2023-05-10T16:57:12.252Z,3824
2023-05-10T16:58:28.000Z,3680
2023-05-10T16:59:44.000Z,3720
2023-05-10T17:01:00.000Z,3816
2023-05-10T17:02:17.000Z,3940
2023-05-10T17:03:33.000Z,3968
2023-05-10T17:04:49.000Z,3952
2023-05-10T17:06:05.000Z,4012
2023-05-10T17:07:21.000Z,4104
2023-05-10T17:08:38.000Z,4132
2023-05-10T17:09:54.000Z,4108
2023-05-10T17:11:09.000Z,4008
2023-05-10T17:12:25.000Z,4092
2023-05-10T17:13:41.000Z,3956